Portada
METAR-TAF:

METAR-TAF

Aeroports :

Chumphon, Tailàndia

latitud: 10-42-40N, longitud: 099-21-42E, altitud: 5 m

Observació

L'informe es va fer fa 9 hores i 40 minuts, a les 11:00 UTC
Vent 5 kt del Est/Sud-Est, variant entre Nord-Est i Sud/Sud-Est
Temperatura 30°C
Humitat 75%
Pressió 1008 hPa
Visibilitat 10 km o més
Escasses núvols a una alçada de 2000 ft

METAR: VTSE 071100Z 12005KT 050V160 9999 FEW020 30/25 Q1008 NOSIG

Hora: 03:40 (20:40 UTC)

Pronòstic

L'informe es va fer fa 3 hores i 40 minuts, a les 17:00 UTC
Pronòstic vàlid del 07 a les 18 UTC al 08 a les 18 UTC
Vent 5 kt del Sud-Est
Visibilitat 10 km o més
Escasses núvols a una alçada de 2000 ft

TAF: VTSE 071700Z 0718/0818 14005KT 9999 FEW020

Observacions i pronòstics meteorològics de més de 4000 aeroports (METAR i TAF).

Les estacions disponibles són els punts grocs i vermells al mapa.

Posi el ratolí al punt desitjat per veure el nom de l'estació.

Feu clic per veure les observacions i els pronòstics meteorològics.

Per canviar el mapa: feu clic els botons verds amb una creu de color negre per apropar; al botó verd amb un guió per allunyar la imatge; o en les fletxes verdes per a mapes adjacents.


METAR-TAF: